createdAt,value
2022-08-05T00:00:52.118Z,4.15
2022-08-05T00:01:53.871Z,4.35
2022-08-05T00:02:56.019Z,4.82
2022-08-05T00:03:57.740Z,4.50
2022-08-05T00:04:59.657Z,4.30
2022-08-05T00:06:22.082Z,4.38
2022-08-05T00:07:59.683Z,4.55
2022-08-05T00:08:46.051Z,4.90
2022-08-05T00:09:49.101Z,4.30
2022-08-05T00:10:50.653Z,4.18
2022-08-05T00:11:55.733Z,4.50
2022-08-05T00:13:01.785Z,4.43
2022-08-05T00:14:12.755Z,4.65
2022-08-05T00:15:55.519Z,4.57
2022-08-05T00:16:53.330Z,4.88
2022-08-05T00:17:55.555Z,4.25
2022-08-05T00:18:57.297Z,5.13
2022-08-05T00:20:02.846Z,4.40
2022-08-05T00:21:06.965Z,4.53
2022-08-05T00:22:11.118Z,5.00
2022-08-05T00:23:13.397Z,4.47
2022-08-05T00:24:18.886Z,4.97
2022-08-05T00:25:26.510Z,4.20
2022-08-05T00:26:52.014Z,4.25
2022-08-05T00:27:54.470Z,4.50
2022-08-05T00:28:57.026Z,4.65
2022-08-05T00:29:59.164Z,4.80
2022-08-05T00:31:07.594Z,4.10
2022-08-05T00:32:15.111Z,4.60
2022-08-05T00:34:55.988Z,4.78
2022-08-05T00:35:05.581Z,4.35
2022-08-05T00:36:16.139Z,4.10
2022-08-05T00:37:35.647Z,4.28
2022-08-05T00:38:50.259Z,4.32
2022-08-05T00:39:57.914Z,4.57
2022-08-05T00:41:00.817Z,4.68
2022-08-05T00:42:03.251Z,4.28
2022-08-05T00:43:07.620Z,4.70
2022-08-05T00:44:09.374Z,4.25
2022-08-05T00:45:13.471Z,4.35
2022-08-05T00:46:15.252Z,4.43
2022-08-05T00:47:18.503Z,4.30
2022-08-05T00:48:31.330Z,4.13
2022-08-05T00:49:51.074Z,3.63
2022-08-05T00:50:54.253Z,4.05
2022-08-05T00:51:55.855Z,4.40
2022-08-05T00:52:57.630Z,4.40
2022-08-05T00:54:02.523Z,4.22
2022-08-05T00:55:07.357Z,4.30
2022-08-05T00:56:09.582Z,4.68
2022-08-05T00:57:11.391Z,4.85
2022-08-05T00:58:17.094Z,4.03
2022-08-05T00:59:21.169Z,4.90
2022-08-05T01:00:22.762Z,4.38
2022-08-05T01:01:42.968Z,4.50
2022-08-05T01:02:50.153Z,4.80
2022-08-05T01:03:52.483Z,4.47
2022-08-05T01:04:54.275Z,4.38
2022-08-05T01:05:56.492Z,4.43
2022-08-05T01:06:58.111Z,3.88
2022-08-05T01:08:40.218Z,4.15
2022-08-05T01:09:22.864Z,4.22
2022-08-05T01:10:35.537Z,4.47
2022-08-05T01:11:40.802Z,4.00
2022-08-05T01:13:03.208Z,4.30
2022-08-05T01:14:42.307Z,4.20
2022-08-05T01:15:50.646Z,4.35
2022-08-05T01:17:04.668Z,4.28
2022-08-05T01:18:13.522Z,4.55
2022-08-05T01:19:36.621Z,4.38
2022-08-05T01:20:50.881Z,4.45
2022-08-05T01:22:18.922Z,4.50
2022-08-05T01:24:14.209Z,4.30
2022-08-05T01:25:24.914Z,4.53
2022-08-05T01:27:00.869Z,4.70
2022-08-05T01:28:39.703Z,4.00
2022-08-05T01:29:47.222Z,4.28
2022-08-05T01:31:03.017Z,4.38
2022-08-05T01:32:12.534Z,4.60
2022-08-05T01:33:25.242Z,4.63
2022-08-05T01:34:50.960Z,4.18
2022-08-05T01:35:57.663Z,4.53
2022-08-05T01:37:17.986Z,4.45
2022-08-05T01:38:29.932Z,4.40
2022-08-05T01:39:46.288Z,4.30
2022-08-05T01:40:50.531Z,4.22
2022-08-05T01:41:54.609Z,4.13
2022-08-05T01:42:57.832Z,4.05
2022-08-05T01:44:01.919Z,4.32
2022-08-05T01:45:07.172Z,4.60
2022-08-05T01:46:16.316Z,4.50
2022-08-05T01:47:21.004Z,4.07
2022-08-05T01:48:25.043Z,4.30
2022-08-05T01:49:27.772Z,4.35
2022-08-05T01:50:51.469Z,4.22
2022-08-05T01:51:58.030Z,4.10
2022-08-05T01:53:02.359Z,3.90
2022-08-05T01:54:07.579Z,4.30
2022-08-05T01:55:14.083Z,4.60
2022-08-05T01:58:09.488Z,4.85
2022-08-05T01:58:29.305Z,4.20
2022-08-05T01:59:08.418Z,4.03
2022-08-05T02:00:12.125Z,4.03
2022-08-05T02:01:25.314Z,4.40
2022-08-05T02:02:29.848Z,4.32
2022-08-05T02:03:38.233Z,4.30
2022-08-05T02:04:43.441Z,4.40
2022-08-05T02:05:49.371Z,4.15
2022-08-05T02:06:57.465Z,4.20
2022-08-05T02:08:01.563Z,4.63
2022-08-05T02:09:05.197Z,4.32
2022-08-05T02:10:07.984Z,4.20
2022-08-05T02:11:13.614Z,4.28
2022-08-05T02:12:34.499Z,4.70
2022-08-05T02:13:53.969Z,4.40
2022-08-05T02:15:19.985Z,4.43
2022-08-05T02:16:33.043Z,4.35
2022-08-05T02:18:31.229Z,4.18
2022-08-05T02:19:24.533Z,4.78
2022-08-05T02:20:39.145Z,4.40
2022-08-05T02:21:49.281Z,4.45
2022-08-05T02:23:05.695Z,4.40
2022-08-05T02:24:18.198Z,4.25
2022-08-05T02:25:24.893Z,4.32
2022-08-05T02:26:37.717Z,4.40
2022-08-05T02:27:58.134Z,4.40
2022-08-05T02:29:02.619Z,4.88
2022-08-05T02:30:08.863Z,4.68
2022-08-05T02:31:23.098Z,4.50
2022-08-05T02:32:30.595Z,4.50
2022-08-05T02:33:38.758Z,4.40
2022-08-05T02:34:41.940Z,4.10
2022-08-05T02:35:55.867Z,4.65
2022-08-05T02:37:04.981Z,4.22
2022-08-05T02:38:09.493Z,3.97
2022-08-05T02:39:13.133Z,4.60
2022-08-05T02:40:17.112Z,4.40
2022-08-05T02:41:21.069Z,4.22
2022-08-05T02:42:25.833Z,4.10
2022-08-05T02:43:28.472Z,4.15
2022-08-05T02:44:33.087Z,4.97
2022-08-05T02:45:51.951Z,4.45
2022-08-05T02:47:00.216Z,4.10
2022-08-05T02:48:11.617Z,3.92
2022-08-05T02:49:16.455Z,4.72
2022-08-05T02:50:19.071Z,4.30
2022-08-05T02:51:28.558Z,3.90
2022-08-05T02:52:45.735Z,4.47
2022-08-05T02:53:48.531Z,4.45
2022-08-05T02:54:57.008Z,4.47
2022-08-05T02:56:02.407Z,4.68
2022-08-05T02:57:09.760Z,4.47
2022-08-05T02:58:16.370Z,4.30
2022-08-05T02:59:19.520Z,4.93
2022-08-05T03:00:29.998Z,4.75
2022-08-05T03:01:34.511Z,4.35
2022-08-05T03:02:42.811Z,4.35
2022-08-05T03:04:03.413Z,4.53
2022-08-05T03:05:12.604Z,4.60
2022-08-05T03:06:54.727Z,4.75
2022-08-05T03:08:00.705Z,4.68
2022-08-05T03:09:00.995Z,4.82
2022-08-05T03:10:03.254Z,4.20
2022-08-05T03:11:53.148Z,4.53
2022-08-05T03:12:45.961Z,4.45
2022-08-05T03:14:03.302Z,4.65
2022-08-05T03:15:09.297Z,4.38
2022-08-05T03:16:11.475Z,4.60
2022-08-05T03:17:17.737Z,4.35
2022-08-05T03:18:24.740Z,4.55
2022-08-05T03:19:33.495Z,4.88
2022-08-05T03:20:38.486Z,4.20
2022-08-05T03:21:48.644Z,4.65
2022-08-05T03:22:51.582Z,4.53
2022-08-05T03:23:53.981Z,4.28
2022-08-05T03:24:57.098Z,4.55
2022-08-05T03:26:31.435Z,4.20
2022-08-05T03:27:58.949Z,4.32
2022-08-05T03:28:56.504Z,4.13
2022-08-05T03:30:07.185Z,4.55
2022-08-05T03:31:10.101Z,4.15
2022-08-05T03:32:20.700Z,4.35
2022-08-05T03:33:51.123Z,4.60
2022-08-05T03:34:54.731Z,3.95
2022-08-05T03:35:58.414Z,4.30
2022-08-05T03:37:00.925Z,4.50
2022-08-05T03:38:03.691Z,4.70
2022-08-05T03:39:12.838Z,4.53
2022-08-05T03:40:24.126Z,4.65
2022-08-05T03:41:45.200Z,4.72
2022-08-05T03:42:51.952Z,4.50
2022-08-05T03:44:09.979Z,4.90
2022-08-05T03:45:22.605Z,4.85
2022-08-05T03:46:29.822Z,4.25
2022-08-05T03:47:35.525Z,4.05
2022-08-05T03:48:45.252Z,4.70
2022-08-05T03:49:52.054Z,4.50
2022-08-05T03:52:35.024Z,4.25
2022-08-05T03:52:38.610Z,4.68
2022-08-05T03:55:51.304Z,4.40
2022-08-05T03:56:05.949Z,4.50
2022-08-05T03:57:00.279Z,4.10
2022-08-05T03:58:04.094Z,4.20
2022-08-05T03:59:13.697Z,4.20
2022-08-05T04:00:26.651Z,4.80
2022-08-05T04:01:32.179Z,4.45
2022-08-05T04:02:38.681Z,4.65
2022-08-05T04:04:09.114Z,4.78
2022-08-05T04:05:13.215Z,4.80
2022-08-05T04:06:17.696Z,4.35
2022-08-05T04:07:24.833Z,4.40
2022-08-05T04:08:36.250Z,4.70
2022-08-05T04:09:39.132Z,4.80
2022-08-05T04:10:57.214Z,4.80
2022-08-05T04:11:59.905Z,4.70
2022-08-05T04:13:04.332Z,4.60
2022-08-05T04:14:07.384Z,4.80
2022-08-05T04:15:10.765Z,4.43
2022-08-05T04:16:25.328Z,4.45
2022-08-05T04:17:55.578Z,4.93
2022-08-05T04:18:57.789Z,4.63
2022-08-05T04:19:59.684Z,4.70
2022-08-05T04:21:06.844Z,4.70
2022-08-05T04:22:12.057Z,4.97
2022-08-05T04:23:16.012Z,4.70
2022-08-05T04:24:19.435Z,4.88
2022-08-05T04:25:56.930Z,4.85
2022-08-05T04:26:45.981Z,4.72
2022-08-05T04:27:57.329Z,5.57
2022-08-05T04:29:01.335Z,4.85
2022-08-05T04:30:10.225Z,4.57
2022-08-05T04:31:11.876Z,4.45
2022-08-05T04:32:13.664Z,4.32
2022-08-05T04:33:54.774Z,4.60
2022-08-05T04:34:43.844Z,4.93
2022-08-05T04:36:15.551Z,5.40
2022-08-05T04:37:07.711Z,4.38
2022-08-05T04:38:10.203Z,4.22
2022-08-05T04:39:18.281Z,4.30
2022-08-05T04:40:20.059Z,4.50
2022-08-05T04:41:37.068Z,5.00
2022-08-05T04:42:40.813Z,4.95
2022-08-05T04:43:48.074Z,5.15
2022-08-05T04:44:53.730Z,4.90
2022-08-05T04:45:55.759Z,4.50
2022-08-05T04:47:09.025Z,4.85
2022-08-05T04:48:18.379Z,5.18
2022-08-05T04:49:38.925Z,4.70
2022-08-05T04:51:02.437Z,5.57
2022-08-05T04:52:11.582Z,4.20
2022-08-05T04:53:18.787Z,5.13
2022-08-05T04:54:22.200Z,5.07
2022-08-05T04:56:14.605Z,4.53
2022-08-05T04:56:45.899Z,5.00
2022-08-05T04:57:51.564Z,4.40
2022-08-05T04:58:56.077Z,4.80
2022-08-05T04:59:58.378Z,4.68
2022-08-05T05:01:00.955Z,4.50
2022-08-05T05:02:07.118Z,4.90
2022-08-05T05:03:11.254Z,5.72
2022-08-05T05:04:13.174Z,4.55
2022-08-05T05:05:26.509Z,4.88
2022-08-05T05:06:39.103Z,4.88
2022-08-05T05:07:52.883Z,5.20
2022-08-05T05:08:57.919Z,4.80
2022-08-05T05:10:04.254Z,5.07
2022-08-05T05:11:06.570Z,4.95
2022-08-05T05:12:08.379Z,4.88
2022-08-05T05:13:11.456Z,4.70
2022-08-05T05:14:16.163Z,4.45
2022-08-05T05:16:02.027Z,5.00
2022-08-05T05:16:39.716Z,4.57
2022-08-05T05:17:55.761Z,5.00
2022-08-05T05:19:18.913Z,4.50
2022-08-05T05:20:21.218Z,5.47
2022-08-05T05:21:28.251Z,4.97
2022-08-05T05:22:35.379Z,4.15
2022-08-05T05:24:03.808Z,4.88
2022-08-05T05:25:16.692Z,4.57
2022-08-05T05:26:19.185Z,5.13
2022-08-05T05:27:21.288Z,5.28
2022-08-05T05:28:24.861Z,6.03
2022-08-05T05:29:40.939Z,5.28
2022-08-05T05:30:49.680Z,5.22
2022-08-05T05:31:51.692Z,5.47
2022-08-05T05:32:57.145Z,5.75
2022-08-05T05:34:02.909Z,5.05
2022-08-05T05:35:05.037Z,6.32
2022-08-05T05:36:07.882Z,5.22
2022-08-05T05:37:13.217Z,4.85
2022-08-05T05:38:26.954Z,4.80
2022-08-05T05:39:34.374Z,4.70
2022-08-05T05:40:36.457Z,4.80
2022-08-05T05:41:40.622Z,4.55
2022-08-05T05:42:47.167Z,4.75
2022-08-05T05:43:58.410Z,4.60
2022-08-05T05:45:02.915Z,5.22
2022-08-05T05:46:05.219Z,4.28
2022-08-05T05:47:21.692Z,5.22
2022-08-05T05:48:27.584Z,4.40
2022-08-05T05:49:29.464Z,5.40
2022-08-05T05:50:31.118Z,5.13
2022-08-05T05:51:49.717Z,4.55
2022-08-05T05:52:52.465Z,4.55
2022-08-05T05:53:58.843Z,5.30
2022-08-05T05:55:02.466Z,5.30
2022-08-05T05:56:09.619Z,4.97
2022-08-05T05:57:13.798Z,5.10
2022-08-05T05:58:21.150Z,5.05
2022-08-05T05:59:33.840Z,4.85
2022-08-05T06:00:42.110Z,5.50
2022-08-05T06:01:57.373Z,5.38
2022-08-05T06:03:02.805Z,5.20
2022-08-05T06:04:04.958Z,4.38
2022-08-05T06:05:16.705Z,4.80
2022-08-05T06:06:19.263Z,5.00
2022-08-05T06:07:24.300Z,4.40
2022-08-05T06:08:44.423Z,4.60
2022-08-05T06:10:00.579Z,5.38
2022-08-05T06:11:05.430Z,4.72
2022-08-05T06:12:09.668Z,4.50
2022-08-05T06:13:13.791Z,4.20
2022-08-05T06:14:15.414Z,4.22
2022-08-05T06:15:24.030Z,4.88
2022-08-05T06:16:29.347Z,4.15
2022-08-05T06:17:53.676Z,4.50
2022-08-05T06:18:56.674Z,4.90
2022-08-05T06:20:02.553Z,4.10
2022-08-05T06:21:04.789Z,4.13
2022-08-05T06:22:10.211Z,4.47
2022-08-05T06:23:12.145Z,5.07
2022-08-05T06:24:14.741Z,4.70
2022-08-05T06:25:59.142Z,4.50
2022-08-05T06:26:38.756Z,4.75
2022-08-05T06:28:10.871Z,4.00
2022-08-05T06:29:03.663Z,5.20
2022-08-05T06:30:27.414Z,4.00
2022-08-05T06:31:30.403Z,4.93
2022-08-05T06:32:32.783Z,4.55
2022-08-05T06:34:07.590Z,4.53
2022-08-05T06:35:05.974Z,4.82
2022-08-05T06:36:17.047Z,4.32
2022-08-05T06:37:55.622Z,4.65
2022-08-05T06:38:40.692Z,4.15
2022-08-05T06:39:49.058Z,4.22
2022-08-05T06:40:51.593Z,4.22
2022-08-05T06:41:53.623Z,4.13
2022-08-05T06:42:55.262Z,4.18
2022-08-05T06:44:00.297Z,4.35
2022-08-05T06:45:05.427Z,4.22
2022-08-05T06:46:10.357Z,4.03
2022-08-05T06:48:11.831Z,3.80
2022-08-05T06:48:54.713Z,4.40
2022-08-05T06:50:00.177Z,4.00
2022-08-05T06:51:09.634Z,4.07
2022-08-05T06:52:36.407Z,4.28
2022-08-05T06:53:39.311Z,4.75
2022-08-05T06:54:41.554Z,3.67
2022-08-05T06:55:43.268Z,4.38
2022-08-05T06:56:54.950Z,3.95
2022-08-05T06:58:29.669Z,4.25
2022-08-05T06:59:38.560Z,4.13
2022-08-05T07:00:41.123Z,4.57
2022-08-05T07:01:42.912Z,4.18
2022-08-05T07:02:48.466Z,5.53
2022-08-05T07:03:55.776Z,4.47
2022-08-05T07:04:57.476Z,4.28
2022-08-05T07:06:05.333Z,3.83
2022-08-05T07:07:08.225Z,3.58
2022-08-05T07:08:11.042Z,3.92
2022-08-05T07:09:12.939Z,4.10
2022-08-05T07:10:16.262Z,3.88
2022-08-05T07:11:25.431Z,3.83
2022-08-05T07:12:49.095Z,4.10
2022-08-05T07:14:19.967Z,4.13
2022-08-05T07:16:01.461Z,4.68
2022-08-05T07:18:02.050Z,4.20
2022-08-05T07:18:30.090Z,4.10
2022-08-05T07:20:55.038Z,4.13
2022-08-05T07:22:00.733Z,4.00
2022-08-05T07:23:02.999Z,3.83
2022-08-05T07:24:11.150Z,4.35
2022-08-05T07:25:22.546Z,3.40
2022-08-05T07:26:25.917Z,3.92
2022-08-05T07:28:00.722Z,4.28
2022-08-05T07:28:50.843Z,4.07
2022-08-05T07:30:23.806Z,3.53
2022-08-05T07:31:17.019Z,4.07
2022-08-05T07:32:26.321Z,3.78
2022-08-05T07:33:37.184Z,3.50
2022-08-05T07:34:42.253Z,3.90
2022-08-05T07:36:03.641Z,4.10
2022-08-05T07:37:07.562Z,3.45
2022-08-05T07:38:33.008Z,3.90
2022-08-05T07:40:04.590Z,3.90
2022-08-05T07:41:04.478Z,3.40
2022-08-05T07:42:31.845Z,3.28
2022-08-05T07:43:35.883Z,4.05
2022-08-05T07:44:38.689Z,4.20
2022-08-05T07:45:57.460Z,4.20
2022-08-05T07:46:59.845Z,4.13
2022-08-05T07:48:02.072Z,3.80
2022-08-05T07:49:06.129Z,4.05
2022-08-05T07:50:12.237Z,4.00
2022-08-05T07:51:23.461Z,3.63
2022-08-05T07:52:43.574Z,3.92
2022-08-05T07:53:50.388Z,3.95
2022-08-05T07:54:53.266Z,3.60
2022-08-05T07:56:05.260Z,4.07
2022-08-05T07:57:22.504Z,3.70
2022-08-05T07:58:57.242Z,3.83
2022-08-05T07:59:53.672Z,4.13
2022-08-05T08:00:55.639Z,3.90
2022-08-05T08:01:58.052Z,3.33
2022-08-05T08:03:13.753Z,3.55
2022-08-05T08:04:17.100Z,3.00
2022-08-05T08:05:27.349Z,3.60
2022-08-05T08:06:30.888Z,3.55
2022-08-05T08:07:39.465Z,3.60
2022-08-05T08:08:54.947Z,3.20
2022-08-05T08:09:57.075Z,3.30
2022-08-05T08:10:58.865Z,3.65
2022-08-05T08:12:07.758Z,3.80
2022-08-05T08:13:21.961Z,3.58
2022-08-05T08:14:31.476Z,3.85
2022-08-05T08:16:33.387Z,3.40
2022-08-05T08:16:54.951Z,3.65
2022-08-05T08:17:58.379Z,3.75
2022-08-05T08:19:03.728Z,3.90
2022-08-05T08:20:21.108Z,3.13
2022-08-05T08:21:30.712Z,3.40
2022-08-05T08:22:32.797Z,4.00
2022-08-05T08:24:01.327Z,3.75
2022-08-05T08:25:03.120Z,3.80
2022-08-05T08:26:05.708Z,3.75
2022-08-05T08:27:11.612Z,3.40
2022-08-05T08:28:36.084Z,3.72
2022-08-05T08:30:06.088Z,3.53
2022-08-05T08:31:00.626Z,3.92
2022-08-05T08:32:02.831Z,3.85
2022-08-05T08:33:13.963Z,3.80
2022-08-05T08:34:30.379Z,7.03
2022-08-05T08:35:41.302Z,3.88
2022-08-05T08:37:01.742Z,3.75
2022-08-05T08:38:06.937Z,3.40
2022-08-05T08:39:15.546Z,3.30
2022-08-05T08:40:18.424Z,3.72
2022-08-05T08:41:22.458Z,3.15
2022-08-05T08:45:30.607Z,3.67
2022-08-05T08:46:32.857Z,3.83
2022-08-05T08:48:06.915Z,3.65
2022-08-05T08:49:17.453Z,3.60
2022-08-05T08:50:32.719Z,3.63
2022-08-05T08:52:05.796Z,3.72
2022-08-05T08:53:15.253Z,4.00
2022-08-05T08:54:17.391Z,3.83
2022-08-05T08:56:01.924Z,3.83
2022-08-05T08:56:47.907Z,3.50
2022-08-05T08:57:58.320Z,3.72
2022-08-05T08:59:01.496Z,4.10
2022-08-05T09:00:11.936Z,3.97
2022-08-05T09:01:19.052Z,4.13
2022-08-05T09:02:24.211Z,3.90
2022-08-05T09:03:40.577Z,3.28
2022-08-05T09:05:16.253Z,4.00
2022-08-05T09:06:11.100Z,3.50
2022-08-05T09:07:28.192Z,3.60
2022-08-05T09:08:30.652Z,3.60
2022-08-05T09:09:35.633Z,4.07
2022-08-05T09:10:42.070Z,3.10
2022-08-05T09:11:50.685Z,3.67
2022-08-05T09:12:54.281Z,3.83
2022-08-05T09:14:10.328Z,3.90
2022-08-05T09:15:21.688Z,3.15
2022-08-05T09:16:26.945Z,3.65
2022-08-05T09:17:40.542Z,3.83
2022-08-05T09:18:44.452Z,3.60
2022-08-05T09:20:01.403Z,3.30
2022-08-05T09:21:11.454Z,3.58
2022-08-05T09:22:31.767Z,3.72
2022-08-05T09:23:37.478Z,3.28
2022-08-05T09:25:23.736Z,3.20
2022-08-05T09:26:25.678Z,3.50
2022-08-05T09:28:04.449Z,4.00
2022-08-05T09:29:05.835Z,3.40
2022-08-05T09:30:16.419Z,3.90
2022-08-05T09:32:38.656Z,3.45
2022-08-05T09:32:46.420Z,3.53
2022-08-05T09:33:53.757Z,3.50
2022-08-05T09:34:56.253Z,4.18
2022-08-05T09:36:11.756Z,4.03
2022-08-05T09:38:17.389Z,3.92
2022-08-05T09:39:16.381Z,3.80
2022-08-05T09:40:51.996Z,3.72
2022-08-05T09:42:03.751Z,4.22
2022-08-05T09:43:10.392Z,4.10
2022-08-05T09:44:11.922Z,4.00
2022-08-05T09:46:04.808Z,3.90
2022-08-05T09:46:35.226Z,4.18
2022-08-05T09:47:55.413Z,3.47
2022-08-05T09:49:07.218Z,3.42
2022-08-05T09:50:37.315Z,3.63
2022-08-05T09:51:42.638Z,3.03
2022-08-05T09:52:45.367Z,3.63
2022-08-05T09:53:54.531Z,3.83
2022-08-05T09:55:55.018Z,3.90
2022-08-05T09:56:33.682Z,3.65
2022-08-05T09:57:45.287Z,3.28
2022-08-05T09:58:58.440Z,3.55
2022-08-05T10:00:12.225Z,3.10
2022-08-05T10:01:22.574Z,3.10
2022-08-05T10:02:39.360Z,3.42
2022-08-05T10:04:00.096Z,3.53
2022-08-05T10:05:08.343Z,3.63
2022-08-05T10:06:15.474Z,3.28
2022-08-05T10:07:20.523Z,3.97
2022-08-05T10:08:37.340Z,3.50
2022-08-05T10:10:14.079Z,3.78
2022-08-05T10:11:17.528Z,3.70
2022-08-05T10:12:31.524Z,5.15
2022-08-05T10:13:45.662Z,3.50
2022-08-05T10:14:49.896Z,4.43
2022-08-05T10:15:58.382Z,3.35
2022-08-05T10:17:37.592Z,3.72
2022-08-05T10:18:37.436Z,4.07
2022-08-05T10:20:03.081Z,3.90
2022-08-05T10:21:08.361Z,3.80
2022-08-05T10:22:15.816Z,4.18
2022-08-05T10:23:59.969Z,3.35
2022-08-05T10:25:00.550Z,3.60
2022-08-05T10:26:13.847Z,3.45
2022-08-05T10:27:16.740Z,3.50
2022-08-05T10:28:29.009Z,3.90
2022-08-05T10:30:07.002Z,3.53
2022-08-05T10:32:48.045Z,3.30
2022-08-05T10:32:53.219Z,3.65
2022-08-05T10:33:44.581Z,3.78
2022-08-05T10:34:47.068Z,3.10
2022-08-05T10:35:59.733Z,3.15
2022-08-05T10:37:02.433Z,3.38
2022-08-05T10:38:06.324Z,3.30
2022-08-05T10:39:24.169Z,4.03
2022-08-05T10:40:45.861Z,3.58
2022-08-05T10:42:01.028Z,3.78
2022-08-05T10:43:18.042Z,3.80
2022-08-05T10:44:25.451Z,3.25
2022-08-05T10:45:40.117Z,3.80
2022-08-05T10:46:45.198Z,3.42
2022-08-05T10:47:56.103Z,3.50
2022-08-05T10:49:10.500Z,4.00
2022-08-05T10:50:33.061Z,3.70
2022-08-05T10:51:59.954Z,3.55
2022-08-05T10:53:02.407Z,3.85
2022-08-05T10:54:28.379Z,3.60
2022-08-05T10:55:27.878Z,3.72
2022-08-05T10:56:36.740Z,3.60
2022-08-05T10:57:41.465Z,3.35
2022-08-05T10:59:07.199Z,3.80
2022-08-05T11:00:30.074Z,3.58
2022-08-05T11:02:03.645Z,3.78
2022-08-05T11:03:25.950Z,3.90
2022-08-05T11:04:28.255Z,3.65
2022-08-05T11:05:34.105Z,3.75
2022-08-05T11:07:01.493Z,3.30
2022-08-05T11:08:27.515Z,3.90
2022-08-05T11:09:46.700Z,3.75
2022-08-05T11:10:50.431Z,3.85
2022-08-05T11:12:03.209Z,4.00
2022-08-05T11:13:06.751Z,4.05
2022-08-05T11:14:08.677Z,3.95
2022-08-05T11:15:19.407Z,3.67
2022-08-05T11:16:33.714Z,3.80
2022-08-05T11:17:58.178Z,3.70
2022-08-05T11:20:10.251Z,3.75
2022-08-05T11:20:51.391Z,3.40
2022-08-05T11:21:54.897Z,3.70
2022-08-05T11:23:05.895Z,3.60
2022-08-05T11:24:30.437Z,4.10
2022-08-05T11:26:04.418Z,3.55
2022-08-05T11:27:50.899Z,3.70
2022-08-05T11:28:54.699Z,3.33
2022-08-05T11:30:02.163Z,3.67
2022-08-05T11:31:06.546Z,3.70
2022-08-05T11:32:29.002Z,3.78
2022-08-05T11:33:46.614Z,3.85
2022-08-05T11:34:53.972Z,3.83
2022-08-05T11:36:07.486Z,4.35
2022-08-05T11:38:30.195Z,3.90
2022-08-05T11:38:45.345Z,3.97
2022-08-05T11:39:55.259Z,4.00
2022-08-05T11:41:36.878Z,3.95
2022-08-05T11:42:27.928Z,3.78
2022-08-05T11:44:04.896Z,4.15
2022-08-05T11:45:01.343Z,4.00
2022-08-05T11:46:27.026Z,3.90
2022-08-05T11:47:48.932Z,4.07
2022-08-05T11:48:46.796Z,3.63
2022-08-05T11:49:57.695Z,4.28
2022-08-05T11:51:00.015Z,3.63
2022-08-05T11:52:01.968Z,3.75
2022-08-05T11:53:13.245Z,3.85
2022-08-05T11:54:33.587Z,3.60
2022-08-05T11:55:36.489Z,4.18
2022-08-05T11:56:52.145Z,3.47
2022-08-05T11:58:08.403Z,4.65
2022-08-05T11:59:17.710Z,4.28
2022-08-05T12:00:30.823Z,4.10
2022-08-05T12:01:32.674Z,4.50
2022-08-05T12:02:36.104Z,4.57
2022-08-05T12:03:55.498Z,4.10
2022-08-05T12:04:59.565Z,4.47
2022-08-05T12:06:06.067Z,3.72
2022-08-05T12:07:14.242Z,4.18
2022-08-05T12:08:18.251Z,4.07
2022-08-05T12:09:52.938Z,4.20
2022-08-05T12:10:49.593Z,3.97
2022-08-05T12:11:54.263Z,3.85
2022-08-05T12:13:04.210Z,4.25
2022-08-05T12:14:17.727Z,3.95
2022-08-05T12:15:35.834Z,4.28
2022-08-05T12:16:45.593Z,4.95
2022-08-05T12:18:03.663Z,5.22
2022-08-05T12:20:26.939Z,4.03
2022-08-05T12:20:38.818Z,4.35
2022-08-05T12:21:46.910Z,4.18
2022-08-05T12:22:51.762Z,4.03
2022-08-05T12:23:54.371Z,4.05
2022-08-05T12:24:57.373Z,3.78
2022-08-05T12:25:58.945Z,3.83
2022-08-05T12:27:09.810Z,3.50
2022-08-05T12:28:38.850Z,4.18
2022-08-05T12:29:40.456Z,3.97
2022-08-05T12:30:45.873Z,4.22
2022-08-05T12:31:55.159Z,3.65
2022-08-05T12:33:06.986Z,3.72
2022-08-05T12:34:24.041Z,3.90
2022-08-05T12:35:36.989Z,4.00
2022-08-05T12:36:52.289Z,3.53
2022-08-05T12:37:55.666Z,3.90
2022-08-05T12:38:58.629Z,4.30
2022-08-05T12:40:03.696Z,3.88
2022-08-05T12:41:14.106Z,3.83
2022-08-05T12:42:19.685Z,4.47
2022-08-05T12:43:21.454Z,4.18
2022-08-05T12:44:33.861Z,4.30
2022-08-05T12:45:42.377Z,4.05
2022-08-05T12:46:53.869Z,3.90
2022-08-05T12:48:17.014Z,3.95
2022-08-05T12:49:19.052Z,4.30
2022-08-05T12:50:21.361Z,3.70
2022-08-05T12:52:13.457Z,3.90
2022-08-05T12:52:56.811Z,3.53
2022-08-05T12:54:02.034Z,4.82
2022-08-05T12:55:22.108Z,3.58
2022-08-05T12:56:35.269Z,3.90
2022-08-05T12:58:49.930Z,3.97
2022-08-05T12:59:27.517Z,4.45
2022-08-05T13:02:02.433Z,3.60
2022-08-05T13:02:09.873Z,4.15
2022-08-05T13:03:14.710Z,4.22
2022-08-05T13:04:20.987Z,4.07
2022-08-05T13:05:26.581Z,4.10
2022-08-05T13:06:51.441Z,4.45
2022-08-05T13:08:00.674Z,4.13
2022-08-05T13:09:14.612Z,4.07
2022-08-05T13:10:34.875Z,4.32
2022-08-05T13:12:02.818Z,4.47
2022-08-05T13:13:06.871Z,3.92
2022-08-05T13:14:24.738Z,4.60
2022-08-05T13:15:50.282Z,4.13
2022-08-05T13:16:58.815Z,4.63
2022-08-05T13:18:00.589Z,4.20
2022-08-05T13:19:02.987Z,4.10
2022-08-05T13:20:12.016Z,4.15
2022-08-05T13:21:13.535Z,4.30
2022-08-05T13:22:27.715Z,3.90
2022-08-05T13:23:30.623Z,3.70
2022-08-05T13:24:51.213Z,3.78
2022-08-05T13:25:59.696Z,3.92
2022-08-05T13:27:03.425Z,4.00
2022-08-05T13:28:06.875Z,4.30
2022-08-05T13:29:12.338Z,4.72
2022-08-05T13:30:39.059Z,4.10
2022-08-05T13:32:04.482Z,4.53
2022-08-05T13:33:06.242Z,4.53
2022-08-05T13:34:23.190Z,4.10
2022-08-05T13:35:42.967Z,4.55
2022-08-05T13:36:48.929Z,4.75
2022-08-05T13:37:55.754Z,3.97
2022-08-05T13:38:57.948Z,4.00
2022-08-05T13:40:16.501Z,4.32
2022-08-05T13:41:21.328Z,4.10
2022-08-05T13:42:27.761Z,3.92
2022-08-05T13:43:45.165Z,4.40
2022-08-05T13:44:52.663Z,4.53
2022-08-05T13:45:54.360Z,3.85
2022-08-05T13:47:02.341Z,4.32
2022-08-05T13:48:09.904Z,3.88
2022-08-05T13:49:28.651Z,3.90
2022-08-05T13:50:37.084Z,3.92
2022-08-05T13:51:41.426Z,4.20
2022-08-05T13:52:44.084Z,3.75
2022-08-05T13:53:48.133Z,4.13
2022-08-05T13:54:53.597Z,4.00
2022-08-05T13:55:58.881Z,3.88
2022-08-05T13:57:03.930Z,3.90
2022-08-05T13:58:08.616Z,3.90
2022-08-05T13:59:20.206Z,3.97
2022-08-05T14:00:27.156Z,4.07
2022-08-05T14:01:44.351Z,4.10
2022-08-05T14:02:51.175Z,4.25
2022-08-05T14:04:11.815Z,3.90
2022-08-05T14:05:19.584Z,4.45
2022-08-05T14:06:31.344Z,4.30
2022-08-05T14:08:00.139Z,3.92
2022-08-05T14:08:59.566Z,3.65
2022-08-05T14:10:02.214Z,3.90
2022-08-05T14:11:20.196Z,4.40
2022-08-05T14:12:32.241Z,4.25
2022-08-05T14:13:34.399Z,4.47
2022-08-05T14:14:36.059Z,4.18
2022-08-05T14:16:09.216Z,4.30
2022-08-05T14:17:00.426Z,4.20
2022-08-05T14:18:02.812Z,4.05
2022-08-05T14:19:05.461Z,3.92
2022-08-05T14:20:07.915Z,4.30
2022-08-05T14:22:07.751Z,4.20
2022-08-05T14:22:34.401Z,4.40
2022-08-05T14:23:37.310Z,4.38
2022-08-05T14:24:39.907Z,4.30
2022-08-05T14:25:44.887Z,3.92
2022-08-05T14:27:02.028Z,3.63
2022-08-05T14:28:08.516Z,3.78
2022-08-05T14:29:17.631Z,3.92
2022-08-05T14:30:21.483Z,3.53
2022-08-05T14:31:54.278Z,3.88
2022-08-05T14:32:45.583Z,3.53
2022-08-05T14:34:00.361Z,3.78
2022-08-05T14:35:02.201Z,4.45
2022-08-05T14:36:04.486Z,5.13
2022-08-05T14:37:06.296Z,3.80
2022-08-05T14:38:08.191Z,3.90
2022-08-05T14:39:29.825Z,4.50
2022-08-05T14:40:51.728Z,4.15
2022-08-05T14:42:19.457Z,3.75
2022-08-05T14:43:15.444Z,4.07
2022-08-05T14:44:20.733Z,4.18
2022-08-05T14:45:23.900Z,4.07
2022-08-05T14:46:30.615Z,4.10
2022-08-05T14:48:03.318Z,4.18
2022-08-05T14:48:54.790Z,4.18
2022-08-05T14:49:58.861Z,4.25
2022-08-05T14:51:03.643Z,3.83
2022-08-05T14:52:05.585Z,4.20
2022-08-05T14:53:12.556Z,4.32
2022-08-05T14:54:30.285Z,4.80
2022-08-05T14:55:39.173Z,4.38
2022-08-05T14:56:44.268Z,4.40
2022-08-05T14:57:54.294Z,4.35
2022-08-05T14:58:58.084Z,4.35
2022-08-05T14:59:59.807Z,4.38
2022-08-05T15:01:01.987Z,4.57
2022-08-05T15:02:15.849Z,4.78
2022-08-05T15:03:17.641Z,4.63
2022-08-05T15:04:22.539Z,4.60
2022-08-05T15:05:30.225Z,3.90
2022-08-05T15:06:49.062Z,4.13
2022-08-05T15:08:13.186Z,4.53
2022-08-05T15:09:13.664Z,4.60
2022-08-05T15:10:17.229Z,3.95
2022-08-05T15:11:19.000Z,4.22
2022-08-05T15:12:21.157Z,4.28
2022-08-05T15:13:45.985Z,4.40
2022-08-05T15:14:50.881Z,4.25
2022-08-05T15:15:55.648Z,3.92
2022-08-05T15:16:58.710Z,4.10
2022-08-05T15:18:03.886Z,4.45
2022-08-05T15:19:07.673Z,4.65
2022-08-05T15:20:25.539Z,4.72
2022-08-05T15:21:30.503Z,4.22
2022-08-05T15:22:32.509Z,4.88
2022-08-05T15:23:34.112Z,4.43
2022-08-05T15:24:40.175Z,4.57
2022-08-05T15:25:53.856Z,4.30
2022-08-05T15:26:58.186Z,4.55
2022-08-05T15:28:02.138Z,4.90
2022-08-05T15:29:03.836Z,4.10
2022-08-05T15:30:06.602Z,4.15
2022-08-05T15:31:08.311Z,4.80
2022-08-05T15:32:10.635Z,4.65
2022-08-05T15:33:12.629Z,5.10
2022-08-05T15:34:34.545Z,5.13
2022-08-05T15:35:36.453Z,4.82
2022-08-05T15:36:47.428Z,4.93
2022-08-05T15:38:32.282Z,4.97
2022-08-05T15:40:59.323Z,4.80
2022-08-05T15:41:00.569Z,4.85
2022-08-05T15:41:57.669Z,5.18
2022-08-05T15:43:12.804Z,5.03